createdAt,value
2024-02-28T00:02:56.190Z,7.71
2024-02-28T00:07:57.610Z,7.75
2024-02-28T00:13:00.306Z,7.80
2024-02-28T00:18:01.766Z,7.87
2024-02-28T00:23:03.277Z,7.78
2024-02-28T00:28:04.930Z,7.74
2024-02-28T00:33:06.417Z,7.62
2024-02-28T00:38:07.873Z,7.29
2024-02-28T00:43:09.277Z,7.29
2024-02-28T00:48:10.868Z,7.29
2024-02-28T00:53:12.337Z,7.32
2024-02-28T00:58:14.196Z,7.52
2024-02-28T01:03:16.637Z,7.86
2024-02-28T01:08:18.768Z,7.49
2024-02-28T01:13:20.190Z,7.10
2024-02-28T01:18:21.655Z,7.04
2024-02-28T01:23:23.135Z,7.00
2024-02-28T01:28:24.683Z,6.92
2024-02-28T01:33:26.256Z,6.73
2024-02-28T01:38:27.946Z,6.78
2024-02-28T01:43:29.403Z,6.78
2024-02-28T01:48:31.029Z,6.49
2024-02-28T01:53:32.554Z,6.53
2024-02-28T01:58:34.231Z,6.48
2024-02-28T02:03:35.764Z,6.40
2024-02-28T02:08:37.995Z,6.82
2024-02-28T02:13:52.580Z,7.13
2024-02-28T02:18:54.256Z,7.02
2024-02-28T02:23:55.774Z,7.03
2024-02-28T02:28:57.235Z,7.15
2024-02-28T02:33:58.759Z,7.18
2024-02-28T02:39:00.220Z,7.31
2024-02-28T02:44:01.656Z,7.35
2024-02-28T02:49:03.079Z,7.77
2024-02-28T02:54:04.500Z,7.81
2024-02-28T02:59:05.926Z,7.72
2024-02-28T03:04:07.349Z,7.55
2024-02-28T03:09:08.889Z,7.41
2024-02-28T03:14:10.419Z,7.52
2024-02-28T03:19:12.207Z,7.40
2024-02-28T03:24:13.766Z,7.54
2024-02-28T03:29:15.190Z,7.60
2024-02-28T03:34:16.608Z,8.07
2024-02-28T03:39:18.324Z,7.37
2024-02-28T03:44:20.279Z,7.52
2024-02-28T03:49:21.704Z,7.92
2024-02-28T03:54:23.139Z,8.04
2024-02-28T03:59:24.877Z,7.80
2024-02-28T04:04:26.303Z,8.11
2024-02-28T04:09:27.831Z,7.92
2024-02-28T04:14:29.291Z,7.91
2024-02-28T04:19:34.926Z,7.99
2024-02-28T04:24:36.395Z,7.85
2024-02-28T04:29:39.043Z,7.79
2024-02-28T04:34:40.638Z,7.77
2024-02-28T04:39:42.119Z,7.88
2024-02-28T04:44:43.722Z,8.44
2024-02-28T04:49:45.481Z,8.30
2024-02-28T04:54:46.967Z,8.37
2024-02-28T04:59:48.529Z,8.35
2024-02-28T05:04:50.095Z,8.03
2024-02-28T05:09:51.639Z,8.45
2024-02-28T05:14:55.250Z,8.14
2024-02-28T05:19:58.276Z,8.39
2024-02-28T05:24:59.796Z,8.62
2024-02-28T05:30:02.754Z,8.30
2024-02-28T05:35:04.728Z,8.56
2024-02-28T05:40:08.638Z,8.24
2024-02-28T05:45:10.202Z,8.55
2024-02-28T05:50:11.733Z,8.64
2024-02-28T05:55:13.344Z,8.45
2024-02-28T06:00:15.170Z,8.90
2024-02-28T06:05:16.698Z,8.56
2024-02-28T06:10:18.149Z,8.92
2024-02-28T06:15:19.766Z,8.46
2024-02-28T06:20:21.256Z,8.55
2024-02-28T06:25:24.736Z,8.20
2024-02-28T06:30:26.214Z,8.60
2024-02-28T06:35:28.009Z,8.74
2024-02-28T06:40:33.248Z,9.04
2024-02-28T06:45:35.235Z,8.86
2024-02-28T06:50:36.709Z,9.27
2024-02-28T06:55:38.165Z,8.89
2024-02-28T07:00:39.672Z,9.12
2024-02-28T07:05:41.170Z,9.21
2024-02-28T07:10:44.535Z,9.38
2024-02-28T07:15:46.553Z,9.18
2024-02-28T07:20:48.095Z,9.17
2024-02-28T07:25:49.576Z,9.09
2024-02-28T07:30:51.043Z,9.39
2024-02-28T07:35:53.699Z,9.41
2024-02-28T07:40:55.128Z,9.46
2024-02-28T07:45:56.662Z,9.31
2024-02-28T07:50:58.174Z,9.69
2024-02-28T07:55:59.810Z,9.83
2024-02-28T08:01:01.291Z,9.71
2024-02-28T08:06:02.883Z,9.64
2024-02-28T08:11:04.507Z,9.92
2024-02-28T08:16:07.865Z,9.45
2024-02-28T08:21:10.026Z,9.83
2024-02-28T08:26:11.963Z,9.93
2024-02-28T08:31:13.492Z,9.59
2024-02-28T08:36:16.280Z,10.23
2024-02-28T08:41:18.357Z,9.88
2024-02-28T08:46:19.842Z,10.11
2024-02-28T08:51:21.342Z,10.15
2024-02-28T08:56:22.784Z,10.63
2024-02-28T09:01:24.358Z,10.22
2024-02-28T09:06:26.019Z,10.69
2024-02-28T09:11:27.559Z,10.24
2024-02-28T09:16:29.710Z,10.73
2024-02-28T09:21:31.457Z,10.61
2024-02-28T09:26:32.906Z,11.28
2024-02-28T09:31:34.532Z,11.49
2024-02-28T09:36:44.357Z,10.73
2024-02-28T09:41:50.253Z,11.38
2024-02-28T09:46:52.967Z,11.22
2024-02-28T09:51:54.696Z,11.61
2024-02-28T09:56:56.302Z,11.49
2024-02-28T10:01:58.747Z,10.94
2024-02-28T10:07:11.232Z,11.17
2024-02-28T10:12:12.729Z,11.53
2024-02-28T10:17:14.148Z,11.67
2024-02-28T10:22:15.583Z,12.08
2024-02-28T10:27:18.157Z,11.61
2024-02-28T10:32:19.710Z,12.10
2024-02-28T10:37:22.024Z,12.15
2024-02-28T10:42:27.885Z,11.10
2024-02-28T10:47:29.468Z,11.66
2024-02-28T10:52:34.776Z,12.18
2024-02-28T10:57:38.010Z,11.71
2024-02-28T11:02:40.134Z,11.58
2024-02-28T11:07:43.748Z,12.38
2024-02-28T11:12:55.913Z,12.36
2024-02-28T11:18:08.930Z,12.66
2024-02-28T11:23:10.886Z,12.06
2024-02-28T11:28:12.337Z,12.34
2024-02-28T11:33:14.079Z,12.89
2024-02-28T11:38:15.948Z,12.50
2024-02-28T11:43:19.751Z,12.55
2024-02-28T11:48:21.674Z,13.11
2024-02-28T11:53:24.128Z,12.82
2024-02-28T11:58:26.191Z,12.82
2024-02-28T12:03:28.198Z,13.04
2024-02-28T12:08:30.766Z,13.23
2024-02-28T12:13:32.415Z,13.05
2024-02-28T12:18:33.992Z,13.32
2024-02-28T12:23:35.493Z,13.26
2024-02-28T12:28:36.953Z,13.83
2024-02-28T12:33:38.739Z,13.13
2024-02-28T12:38:41.485Z,13.56
2024-02-28T12:43:43.000Z,13.73
2024-02-28T12:48:45.300Z,14.50
2024-02-28T12:53:50.276Z,14.11
2024-02-28T12:58:53.361Z,14.03
2024-02-28T13:03:55.352Z,14.35
2024-02-28T13:08:56.872Z,14.82
2024-02-28T13:13:58.545Z,14.52
2024-02-28T13:19:00.074Z,14.75
2024-02-28T13:24:02.529Z,14.50
2024-02-28T13:29:03.996Z,14.83
2024-02-28T13:34:05.577Z,14.78
2024-02-28T13:39:08.276Z,14.81
2024-02-28T13:44:10.375Z,14.75
2024-02-28T13:49:13.313Z,14.29
2024-02-28T13:54:14.865Z,14.86
2024-02-28T13:59:16.281Z,14.81
2024-02-28T14:04:17.935Z,15.21
2024-02-28T14:09:19.438Z,14.96
2024-02-28T14:14:20.972Z,15.09
2024-02-28T14:19:22.437Z,14.88
2024-02-28T14:24:23.906Z,15.15
2024-02-28T14:29:25.392Z,15.18
2024-02-28T14:34:27.065Z,15.12
2024-02-28T14:39:28.560Z,15.10
2024-02-28T14:44:29.988Z,15.11
2024-02-28T14:49:31.417Z,15.09
2024-02-28T14:54:32.922Z,15.24
2024-02-28T14:59:34.363Z,15.39
2024-02-28T15:04:35.941Z,15.00
2024-02-28T15:09:40.746Z,15.44
2024-02-28T15:14:42.704Z,15.38
2024-02-28T15:19:44.118Z,15.26
2024-02-28T15:24:45.685Z,15.17
2024-02-28T15:29:47.137Z,15.47
2024-02-28T15:34:48.576Z,15.20
2024-02-28T15:39:51.262Z,15.17
2024-02-28T15:44:52.736Z,15.54
2024-02-28T15:49:55.607Z,14.86
2024-02-28T15:54:58.596Z,15.20
2024-02-28T16:00:00.183Z,15.14
2024-02-28T16:05:02.456Z,14.98
2024-02-28T16:10:04.220Z,14.97
2024-02-28T16:15:09.006Z,15.09
2024-02-28T16:20:10.748Z,14.97
2024-02-28T16:25:12.387Z,14.85
2024-02-28T16:30:14.201Z,14.58
2024-02-28T16:35:15.648Z,14.46
2024-02-28T16:40:17.111Z,14.61
2024-02-28T16:45:18.653Z,14.37
2024-02-28T16:50:20.678Z,14.27
2024-02-28T16:55:22.459Z,14.27
2024-02-28T17:00:24.989Z,14.10
2024-02-28T17:05:26.894Z,14.10
2024-02-28T17:10:28.866Z,13.84
2024-02-28T17:15:31.165Z,14.11
2024-02-28T17:20:32.602Z,13.93
2024-02-28T17:25:34.078Z,14.04
2024-02-28T17:30:35.536Z,14.02
2024-02-28T17:35:37.060Z,13.87
2024-02-28T17:40:38.570Z,13.55
2024-02-28T17:45:40.114Z,13.28
2024-02-28T17:50:41.652Z,13.26
2024-02-28T17:55:43.093Z,13.30
2024-02-28T18:00:47.392Z,13.21
2024-02-28T18:05:49.022Z,13.31
2024-02-28T18:10:50.458Z,12.96
2024-02-28T18:15:52.087Z,12.93
2024-02-28T18:20:55.068Z,13.40
2024-02-28T18:25:56.568Z,13.27
2024-02-28T18:30:58.029Z,13.35
2024-02-28T18:35:59.481Z,13.70
2024-02-28T18:41:02.555Z,13.33
2024-02-28T18:46:04.609Z,13.19
2024-02-28T18:51:06.133Z,13.02
2024-02-28T18:56:07.661Z,12.70
2024-02-28T19:01:11.320Z,12.90
2024-02-28T19:06:13.021Z,12.80
2024-02-28T19:11:14.989Z,12.76
2024-02-28T19:16:16.885Z,12.39
2024-02-28T19:21:18.388Z,12.59
2024-02-28T19:26:19.918Z,12.48
2024-02-28T19:31:21.407Z,12.66
2024-02-28T19:36:22.972Z,12.53
2024-02-28T19:41:24.423Z,12.68
2024-02-28T19:46:26.143Z,12.59
2024-02-28T19:51:27.609Z,12.53
2024-02-28T19:56:29.057Z,12.72
2024-02-28T20:01:31.229Z,12.83
2024-02-28T20:06:33.065Z,12.63
2024-02-28T20:11:34.713Z,12.35
2024-02-28T20:16:40.713Z,12.29
2024-02-28T20:21:42.734Z,12.31
2024-02-28T20:26:44.324Z,12.44
2024-02-28T20:31:45.849Z,12.46
2024-02-28T20:36:47.850Z,12.21
2024-02-28T20:41:49.474Z,12.71
2024-02-28T20:46:51.282Z,12.57
2024-02-28T20:51:53.274Z,12.36
2024-02-28T20:57:02.047Z,12.33
2024-02-28T21:02:11.287Z,12.00
2024-02-28T21:07:14.227Z,11.91
2024-02-28T21:12:16.655Z,11.90
2024-02-28T21:17:20.148Z,11.85
2024-02-28T21:22:21.584Z,11.79
2024-02-28T21:27:23.532Z,11.91
2024-02-28T21:32:25.737Z,11.82
2024-02-28T21:37:27.165Z,11.43
2024-02-28T21:42:29.100Z,11.60
2024-02-28T21:47:30.751Z,11.62
2024-02-28T21:52:32.538Z,11.38
2024-02-28T21:57:34.218Z,11.59
2024-02-28T22:02:35.921Z,11.12
2024-02-28T22:07:37.375Z,11.11
2024-02-28T22:12:40.285Z,11.08
2024-02-28T22:17:42.577Z,10.98
2024-02-28T22:22:44.103Z,10.89
2024-02-28T22:27:45.576Z,10.72
2024-02-28T22:32:47.031Z,10.73
2024-02-28T22:37:48.512Z,10.77
2024-02-28T22:42:50.443Z,10.64
2024-02-28T22:47:51.886Z,10.88
2024-02-28T22:52:53.640Z,10.79
2024-02-28T22:57:55.083Z,10.79
2024-02-28T23:02:58.510Z,10.54
2024-02-28T23:08:00.817Z,10.78
2024-02-28T23:13:02.648Z,10.67
2024-02-28T23:18:06.078Z,10.75
2024-02-28T23:23:07.647Z,10.80
2024-02-28T23:28:09.501Z,10.65
2024-02-28T23:33:11.229Z,10.61
2024-02-28T23:38:12.729Z,10.59
2024-02-28T23:43:14.251Z,10.24
2024-02-28T23:48:15.706Z,10.27
2024-02-28T23:53:17.164Z,10.08
2024-02-28T23:58:18.725Z,10.13
